Time;durP1;ratioP1;P1;durP2;ratioP2;P2;SDS_P1;SDS_P2;PMS_P1;PMS_P2;Temp;Humidity;BMP_temperature;BMP_pressure;BME280_temperature;BME280_humidity;BME280_pressure;Samples;Min_cycle;Max_cycle;Signal;HPM_P1;HPM_P2
2023/05/22 00:00:43;;;;;;;13.03;11.73;;;15.20;99.90;;;;;;5114676;27;20210;-35
2023/05/22 00:03:09;;;;;;;13.13;11.50;;;15.20;99.90;;;;;;5114187;27;20208;-34
2023/05/22 00:05:37;;;;;;;12.13;10.93;;;15.10;99.90;;;;;;5105747;28;20262;-34
2023/05/22 00:08:10;;;;;;;12.20;10.73;;;15.10;99.90;;;;;;5099861;28;20179;-34
2023/05/22 00:10:39;;;;;;;12.93;11.60;;;15.00;99.90;;;;;;5123582;27;20212;-34
2023/05/22 00:13:05;;;;;;;12.67;10.10;;;15.00;99.90;;;;;;5101014;28;20211;-34
2023/05/22 00:15:32;;;;;;;12.40;11.20;;;15.00;99.90;;;;;;5111477;27;20171;-35
2023/05/22 00:17:58;;;;;;;13.07;10.97;;;15.00;99.90;;;;;;5099011;28;20202;-35
2023/05/22 00:20:25;;;;;;;14.40;11.77;;;15.00;99.90;;;;;;5100673;27;20180;-34
2023/05/22 00:22:51;;;;;;;12.97;11.67;;;15.00;99.90;;;;;;5107889;27;20274;-35
2023/05/22 00:25:18;;;;;;;14.03;11.53;;;14.90;99.90;;;;;;5096115;27;20184;-34
2023/05/22 00:27:46;;;;;;;13.80;12.23;;;14.90;99.90;;;;;;5098667;28;20248;-35
2023/05/22 00:30:13;;;;;;;12.83;10.83;;;14.90;99.90;;;;;;5125863;27;20210;-35
2023/05/22 00:32:39;;;;;;;12.80;11.50;;;14.90;99.90;;;;;;5095473;27;20180;-35
2023/05/22 00:35:06;;;;;;;12.93;11.63;;;14.90;99.90;;;;;;5097248;28;20182;-35
2023/05/22 00:37:32;;;;;;;12.00;10.77;;;14.80;99.90;;;;;;5094365;27;20164;-35
2023/05/22 00:39:58;;;;;;;12.77;10.93;;;14.70;99.90;;;;;;5100195;28;20179;-35
2023/05/22 00:42:24;;;;;;;14.47;10.93;;;14.70;99.90;;;;;;5094424;27;20201;-35
2023/05/22 00:44:50;;;;;;;15.10;12.07;;;14.60;99.90;;;;;;5101221;28;20186;-35
2023/05/22 00:47:16;;;;;;;14.70;11.73;;;14.70;99.90;;;;;;5124686;27;20550;-34
2023/05/22 00:49:45;;;;;;;14.40;11.50;;;14.70;99.90;;;;;;5104692;28;20215;-35
2023/05/22 00:52:13;;;;;;;14.63;11.30;;;14.70;99.90;;;;;;5128527;27;20214;-33
2023/05/22 00:54:40;;;;;;;14.77;12.10;;;14.70;99.90;;;;;;5095827;27;20208;-35
2023/05/22 00:57:06;;;;;;;13.57;11.77;;;14.60;99.90;;;;;;5105604;27;20189;-35
2023/05/22 00:59:35;;;;;;;13.17;11.87;;;14.70;99.90;;;;;;5116108;27;20180;-35
2023/05/22 01:02:02;;;;;;;14.70;12.00;;;14.60;99.90;;;;;;5099644;27;20226;-37
2023/05/22 01:04:31;;;;;;;13.13;11.33;;;14.60;99.90;;;;;;5126758;27;20195;-34
2023/05/22 01:06:58;;;;;;;12.70;11.40;;;14.50;99.90;;;;;;5098712;27;20248;-35
2023/05/22 01:09:24;;;;;;;13.33;10.83;;;14.50;99.90;;;;;;5084086;27;20211;-34
2023/05/22 01:12:11;;;;;;;14.63;10.97;;;14.40;99.90;;;;;;5097605;28;20178;-34
2023/05/22 01:14:52;;;;;;;13.77;11.40;;;14.30;99.90;;;;;;5097720;28;20203;-34
2023/05/22 01:17:23;;;;;;;15.57;11.13;;;14.20;99.90;;;;;;5112841;27;20186;-34
2023/05/22 01:20:04;;;;;;;16.73;12.00;;;14.20;99.90;;;;;;5124311;27;20194;-34
2023/05/22 01:23:08;;;;;;;12.73;11.13;;;14.20;99.90;;;;;;5106547;27;20191;-34
2023/05/22 01:25:33;;;;;;;12.67;10.67;;;14.30;99.90;;;;;;5104367;27;20194;-34
2023/05/22 01:28:08;;;;;;;13.33;11.73;;;14.40;99.90;;;;;;5133831;27;20187;-35
2023/05/22 01:30:40;;;;;;;15.60;12.43;;;14.30;99.90;;;;;;5106518;27;20198;-34
2023/05/22 01:33:08;;;;;;;13.60;12.07;;;14.30;99.90;;;;;;5102893;28;20286;-34
2023/05/22 01:35:37;;;;;;;13.47;11.77;;;14.20;99.90;;;;;;5103002;27;20179;-35
2023/05/22 01:38:03;;;;;;;14.73;12.20;;;14.10;99.90;;;;;;5097830;28;20176;-34
2023/05/22 01:40:30;;;;;;;14.60;12.23;;;14.00;99.90;;;;;;5103144;27;20183;-34
2023/05/22 01:42:56;;;;;;;14.03;12.63;;;14.00;99.90;;;;;;5090002;27;20203;-34
2023/05/22 01:45:23;;;;;;;14.17;12.67;;;13.90;99.90;;;;;;5123136;27;20183;-35
2023/05/22 01:47:49;;;;;;;15.60;11.40;;;13.90;99.90;;;;;;5090767;27;20203;-34
2023/05/22 01:50:17;;;;;;;14.83;11.70;;;14.00;99.90;;;;;;5105580;27;20207;-35
2023/05/22 01:53:09;;;;;;;14.53;12.30;;;14.00;99.90;;;;;;5094804;28;20179;-34
2023/05/22 01:55:44;;;;;;;14.10;12.43;;;14.00;99.90;;;;;;5106766;27;20176;-33
2023/05/22 01:58:31;;;;;;;12.93;11.57;;;14.10;99.90;;;;;;5109823;27;20177;-35
2023/05/22 02:00:59;;;;;;;14.07;11.20;;;14.00;99.90;;;;;;5103772;27;20238;-35
2023/05/22 02:03:37;;;;;;;15.10;11.47;;;14.00;99.90;;;;;;5128801;27;20195;-34
2023/05/22 02:06:06;;;;;;;12.70;11.40;;;14.10;99.90;;;;;;5090947;27;20202;-34
2023/05/22 02:08:34;;;;;;;13.97;11.50;;;14.00;99.90;;;;;;5110144;27;20214;-34
2023/05/22 02:11:01;;;;;;;12.67;11.23;;;14.00;99.90;;;;;;5113197;27;20179;-35
2023/05/22 02:13:27;;;;;;;13.50;11.57;;;14.10;99.90;;;;;;5093871;27;20212;-35
2023/05/22 02:15:55;;;;;;;13.87;11.97;;;14.10;99.90;;;;;;5093925;28;20194;-34
2023/05/22 02:18:29;;;;;;;13.93;12.23;;;14.10;99.90;;;;;;5096918;27;20179;-34
2023/05/22 02:20:57;;;;;;;13.40;11.60;;;14.20;99.90;;;;;;5107334;27;20272;-34
2023/05/22 02:23:24;;;;;;;12.23;11.00;;;14.20;99.90;;;;;;5118992;27;20205;-35
2023/05/22 02:25:50;;;;;;;12.50;11.17;;;14.20;99.90;;;;;;5096981;27;20262;-34
2023/05/22 02:28:17;;;;;;;14.53;11.23;;;14.20;99.90;;;;;;5110408;27;20191;-34
2023/05/22 02:30:45;;;;;;;13.87;11.40;;;14.20;99.90;;;;;;5105049;28;20306;-34
2023/05/22 02:33:13;;;;;;;16.13;11.80;;;14.20;99.90;;;;;;5093737;28;20291;-34
2023/05/22 02:35:39;;;;;;;13.60;12.20;;;14.20;99.90;;;;;;5105880;27;20205;-34
2023/05/22 02:38:05;;;;;;;12.77;11.40;;;14.20;99.90;;;;;;5105795;28;20207;-34
2023/05/22 02:40:32;;;;;;;11.93;10.73;;;14.20;99.90;;;;;;5093303;27;20254;-34
2023/05/22 02:42:58;;;;;;;13.13;11.50;;;14.20;99.90;;;;;;5089836;27;20203;-34
2023/05/22 02:45:25;;;;;;;13.47;11.47;;;14.20;99.90;;;;;;5110717;27;20206;-34
2023/05/22 02:47:51;;;;;;;12.37;10.77;;;14.30;99.90;;;;;;5088081;28;20184;-34
2023/05/22 02:50:17;;;;;;;14.67;10.83;;;14.30;99.90;;;;;;5094042;27;20218;-34
2023/05/22 02:52:44;;;;;;;12.63;11.30;;;14.30;99.90;;;;;;5092782;28;20176;-33
2023/05/22 02:55:10;;;;;;;15.20;11.50;;;14.30;99.90;;;;;;5080316;28;20180;-34
2023/05/22 02:57:37;;;;;;;13.00;10.77;;;14.40;99.90;;;;;;5096975;27;20195;-35
2023/05/22 03:00:05;;;;;;;13.80;11.43;;;14.40;99.90;;;;;;5096973;28;20192;-34
2023/05/22 03:02:31;;;;;;;14.80;11.57;;;14.40;99.90;;;;;;5095562;27;20221;-34
2023/05/22 03:04:58;;;;;;;13.87;11.17;;;14.40;99.90;;;;;;5105884;27;20266;-34
2023/05/22 03:07:25;;;;;;;13.33;11.67;;;14.40;99.90;;;;;;5094515;27;20184;-34
2023/05/22 03:09:52;;;;;;;13.87;12.13;;;14.40;99.90;;;;;;5092390;28;20245;-35
2023/05/22 03:12:17;;;;;;;13.00;11.47;;;14.40;99.90;;;;;;5101991;27;20187;-34
2023/05/22 03:14:44;;;;;;;13.43;10.70;;;14.30;99.90;;;;;;5100256;28;20215;-35
2023/05/22 03:17:10;;;;;;;13.67;11.67;;;14.30;99.90;;;;;;5099865;27;20174;-34
2023/05/22 03:19:36;;;;;;;12.90;11.50;;;14.30;99.90;;;;;;5095227;27;20176;-34
2023/05/22 03:22:02;;;;;;;13.47;11.90;;;14.20;99.90;;;;;;5094580;27;20187;-34
2023/05/22 03:24:29;;;;;;;12.97;10.93;;;14.10;99.90;;;;;;5082844;27;20203;-34
2023/05/22 03:26:55;;;;;;;13.00;11.53;;;14.10;99.90;;;;;;5093097;28;20180;-34
2023/05/22 03:29:33;;;;;;;12.33;11.03;;;14.00;99.90;;;;;;5103926;27;20208;-34
2023/05/22 03:32:02;;;;;;;12.37;10.73;;;14.00;99.90;;;;;;5095636;27;20553;-34
2023/05/22 03:34:28;;;;;;;12.40;11.10;;;13.80;99.90;;;;;;5093657;27;20200;-35
2023/05/22 03:36:56;;;;;;;13.93;11.47;;;13.70;99.90;;;;;;5097517;28;20248;-34
2023/05/22 03:39:22;;;;;;;14.67;12.23;;;13.70;99.90;;;;;;5093953;27;20180;-36
2023/05/22 03:42:00;;;;;;;17.30;13.40;;;13.70;99.90;;;;;;5097190;28;20267;-34
2023/05/22 03:44:27;;;;;;;15.13;12.87;;;13.60;99.90;;;;;;5103673;27;20239;-35
2023/05/22 03:46:59;;;;;;;13.60;12.20;;;13.60;99.90;;;;;;5098034;28;20175;-35
2023/05/22 03:49:25;;;;;;;14.77;12.67;;;13.60;99.90;;;;;;5137094;27;20207;-34
2023/05/22 03:51:57;;;;;;;14.87;11.83;;;13.60;99.90;;;;;;5110618;28;20186;-34
2023/05/22 03:54:25;;;;;;;13.57;12.17;;;13.60;99.90;;;;;;5093912;28;20204;-33
2023/05/22 03:56:51;;;;;;;15.27;12.00;;;13.70;99.90;;;;;;5079522;28;20258;-34
2023/05/22 03:59:18;;;;;;;14.03;11.83;;;13.70;99.90;;;;;;5090671;27;20172;-34
2023/05/22 04:01:45;;;;;;;15.33;12.27;;;13.80;99.90;;;;;;5120011;27;20182;-34
2023/05/22 04:04:11;;;;;;;14.03;12.47;;;13.90;99.90;;;;;;5099402;28;20199;-35
2023/05/22 04:06:41;;;;;;;13.50;12.07;;;13.90;99.90;;;;;;5095910;27;20232;-34
2023/05/22 04:09:11;;;;;;;15.07;12.43;;;14.00;99.90;;;;;;5128812;27;20223;-35
2023/05/22 04:11:41;;;;;;;13.80;12.40;;;14.00;99.90;;;;;;5103446;27;20224;-34
2023/05/22 04:14:07;;;;;;;14.83;12.37;;;14.10;99.90;;;;;;5086082;28;20221;-34
2023/05/22 04:16:33;;;;;;;15.17;13.57;;;14.10;99.90;;;;;;5117978;27;20179;-34
2023/05/22 04:19:03;;;;;;;12.80;11.37;;;14.20;99.90;;;;;;5082562;28;20195;-34
2023/05/22 04:21:33;;;;;;;13.53;11.63;;;14.20;99.90;;;;;;5104348;27;20178;-34
2023/05/22 04:24:00;;;;;;;14.07;11.47;;;14.30;99.90;;;;;;5098991;27;20203;-34
2023/05/22 04:26:30;;;;;;;14.20;12.33;;;14.30;99.90;;;;;;5116537;27;20558;-34
2023/05/22 04:28:57;;;;;;;15.80;12.80;;;14.30;99.90;;;;;;5122489;27;20207;-34
2023/05/22 04:31:23;;;;;;;14.10;12.23;;;14.30;99.90;;;;;;5087557;27;20175;-35
2023/05/22 04:33:49;;;;;;;13.23;11.83;;;14.30;99.90;;;;;;5103084;27;20210;-35
2023/05/22 04:36:16;;;;;;;15.77;11.40;;;14.30;99.90;;;;;;5091056;27;20187;-35
2023/05/22 04:38:43;;;;;;;13.90;12.33;;;14.30;99.90;;;;;;5102816;27;20179;-34
2023/05/22 04:41:16;;;;;;;14.13;12.17;;;14.30;99.90;;;;;;5089756;28;20180;-35
2023/05/22 04:43:43;;;;;;;13.03;11.67;;;14.30;99.90;;;;;;5098107;27;20208;-34
2023/05/22 04:46:09;;;;;;;15.53;12.90;;;14.30;99.90;;;;;;5099647;28;20205;-35
2023/05/22 04:48:36;;;;;;;13.90;11.53;;;14.40;99.90;;;;;;5109603;27;20184;-34
2023/05/22 04:51:03;;;;;;;14.70;11.97;;;14.40;99.90;;;;;;5097587;27;20186;-34
2023/05/22 04:53:29;;;;;;;15.30;12.23;;;14.40;99.90;;;;;;5099215;27;20228;-34
2023/05/22 04:55:58;;;;;;;15.13;12.13;;;14.40;99.90;;;;;;5100908;27;20262;-34
2023/05/22 04:58:26;;;;;;;13.57;11.80;;;14.50;99.90;;;;;;5121171;27;20203;-34
2023/05/22 05:00:53;;;;;;;14.53;12.10;;;14.50;99.90;;;;;;5099049;27;20179;-35
2023/05/22 05:03:21;;;;;;;14.50;12.50;;;14.50;99.90;;;;;;5107913;27;20231;-34
2023/05/22 05:05:47;;;;;;;15.80;12.00;;;14.60;99.90;;;;;;5096778;27;20223;-34
2023/05/22 05:08:13;;;;;;;13.97;12.43;;;14.60;99.90;;;;;;5111548;27;20277;-34
2023/05/22 05:10:40;;;;;;;13.93;11.80;;;14.60;99.90;;;;;;5094952;28;20215;-35
2023/05/22 05:13:06;;;;;;;13.77;11.83;;;14.60;99.90;;;;;;5106378;27;20204;-35
2023/05/22 05:15:36;;;;;;;13.17;11.77;;;14.60;99.90;;;;;;5100997;27;20190;-35
2023/05/22 05:18:02;;;;;;;14.73;11.43;;;14.60;99.90;;;;;;5093346;27;20175;-34
2023/05/22 05:20:29;;;;;;;14.20;12.13;;;14.70;99.90;;;;;;5097937;27;20444;-35
2023/05/22 05:22:55;;;;;;;14.10;11.87;;;14.70;99.90;;;;;;5097640;27;20298;-34
2023/05/22 05:25:21;;;;;;;16.10;11.77;;;14.70;99.90;;;;;;5087579;27;20688;-34
2023/05/22 05:27:47;;;;;;;14.03;12.23;;;14.80;99.90;;;;;;5108348;27;20179;-34
2023/05/22 05:30:14;;;;;;;13.73;12.20;;;14.80;99.90;;;;;;5102493;27;20199;-34
2023/05/22 05:32:57;;;;;;;12.70;11.43;;;14.80;99.90;;;;;;5094574;27;20188;-35
2023/05/22 05:35:33;;;;;;;17.33;12.17;;;14.80;99.90;;;;;;5108938;27;20179;-34
2023/05/22 05:38:07;;;;;;;13.40;12.00;;;14.80;99.90;;;;;;5091243;27;20176;-35
2023/05/22 05:40:35;;;;;;;14.67;11.67;;;14.90;99.90;;;;;;5095507;27;20244;-34
2023/05/22 05:43:03;;;;;;;14.77;12.10;;;14.90;99.90;;;;;;5106656;27;20196;-36
2023/05/22 05:45:29;;;;;;;17.10;12.70;;;14.90;99.90;;;;;;5089796;27;20182;-35
2023/05/22 05:47:58;;;;;;;14.07;12.60;;;15.00;99.90;;;;;;5103314;27;20191;-35
2023/05/22 05:50:25;;;;;;;14.47;12.90;;;15.10;99.90;;;;;;5111134;27;20286;-34
2023/05/22 05:52:51;;;;;;;13.80;12.30;;;15.20;99.90;;;;;;5097233;27;20227;-34
2023/05/22 05:55:18;;;;;;;15.43;12.47;;;15.30;99.90;;;;;;5086525;27;20183;-35
2023/05/22 05:57:45;;;;;;;15.93;12.57;;;15.40;99.90;;;;;;5132014;27;20190;-35
2023/05/22 06:00:17;;;;;;;17.07;13.63;;;15.50;99.90;;;;;;5112927;27;20183;-35
2023/05/22 06:02:47;;;;;;;14.00;12.37;;;15.60;99.90;;;;;;5110380;27;20202;-34
2023/05/22 06:05:29;;;;;;;17.17;12.53;;;15.60;99.90;;;;;;5097139;27;20179;-34
2023/05/22 06:08:04;;;;;;;14.63;12.47;;;15.70;99.90;;;;;;5101921;28;20194;-35
2023/05/22 06:10:31;;;;;;;15.80;12.63;;;15.80;99.90;;;;;;5109267;27;20239;-35
2023/05/22 06:13:10;;;;;;;14.77;12.50;;;15.80;99.90;;;;;;5090534;27;20199;-35
2023/05/22 06:15:36;;;;;;;14.37;12.83;;;15.90;99.90;;;;;;5092319;27;20176;-35
2023/05/22 06:18:01;;;;;;;14.53;11.77;;;15.90;99.90;;;;;;5105591;27;20196;-34
2023/05/22 06:20:28;;;;;;;12.37;11.03;;;16.10;99.90;;;;;;5095369;27;20184;-34
2023/05/22 06:22:54;;;;;;;14.07;12.50;;;16.30;99.90;;;;;;5107294;28;20203;-35
2023/05/22 06:25:20;;;;;;;14.03;11.30;;;16.50;99.90;;;;;;5110565;27;20282;-35
2023/05/22 06:27:47;;;;;;;14.43;11.00;;;16.80;99.90;;;;;;5121684;27;20266;-34
2023/05/22 06:30:15;;;;;;;12.97;11.57;;;17.10;99.90;;;;;;5107634;28;20200;-34
2023/05/22 06:32:41;;;;;;;12.50;11.20;;;17.40;99.90;;;;;;5096606;28;20228;-34
2023/05/22 06:35:09;;;;;;;12.52;11.15;;;17.70;99.90;;;;;;5092751;28;20179;-34
2023/05/22 06:37:35;;;;;;;14.15;11.82;;;17.90;99.90;;;;;;5114202;27;20203;-34
2023/05/22 06:40:02;;;;;;;14.93;12.45;;;17.90;99.90;;;;;;5089051;28;20184;-34
2023/05/22 06:42:38;;;;;;;13.15;11.85;;;18.00;99.90;;;;;;5117077;27;20213;-34
2023/05/22 06:45:39;;;;;;;12.80;10.95;;;18.10;99.90;;;;;;5103575;27;20187;-34
2023/05/22 06:48:14;;;;;;;12.98;11.40;;;18.40;99.90;;;;;;5138184;27;20254;-34
2023/05/22 06:50:53;;;;;;;11.95;10.75;;;18.60;99.90;;;;;;5104051;27;20203;-35
2023/05/22 06:53:19;;;;;;;11.65;10.45;;;18.80;99.90;;;;;;5114417;27;20209;-34
2023/05/22 06:55:45;;;;;;;11.23;10.13;;;19.10;99.90;;;;;;5099534;28;20221;-35
2023/05/22 06:58:20;;;;;;;13.45;11.00;;;19.40;99.90;;;;;;5116656;27;20274;-34
2023/05/22 07:00:45;;;;;;;13.40;10.18;;;19.50;99.90;;;;;;5100773;27;20214;-34
2023/05/22 07:03:20;;;;;;;11.45;10.25;;;19.60;99.90;;;;;;5101176;27;20199;-34
2023/05/22 07:06:09;;;;;;;12.23;10.93;;;19.80;99.90;;;;;;5133655;27;20183;-36
2023/05/22 07:08:35;;;;;;;11.75;10.65;;;20.10;99.90;;;;;;5104462;27;20529;-34
2023/05/22 07:11:05;;;;;;;11.60;10.40;;;20.40;99.90;;;;;;5122563;27;20211;-35
2023/05/22 07:13:31;;;;;;;11.88;9.65;;;20.60;99.90;;;;;;5107077;27;20207;-34
2023/05/22 07:15:57;;;;;;;13.07;10.85;;;20.70;99.90;;;;;;5107993;27;20164;-34
2023/05/22 07:18:24;;;;;;;12.30;11.10;;;20.60;99.90;;;;;;5107924;27;20236;-34
2023/05/22 07:20:50;;;;;;;13.40;11.15;;;20.60;99.90;;;;;;5124429;27;20185;-34
2023/05/22 07:23:18;;;;;;;12.50;11.05;;;20.50;99.90;;;;;;5124458;27;20230;-35
2023/05/22 07:25:44;;;;;;;13.23;11.52;;;20.30;99.90;;;;;;5125144;27;20231;-34
2023/05/22 07:28:13;;;;;;;13.63;12.02;;;20.30;99.90;;;;;;5109022;27;20200;-35
2023/05/22 07:30:51;;;;;;;14.80;11.48;;;20.30;99.90;;;;;;5124721;27;20296;-34
2023/05/22 07:33:17;;;;;;;12.82;11.20;;;20.40;99.90;;;;;;5126563;27;20215;-34
2023/05/22 07:35:45;;;;;;;12.88;11.55;;;20.50;99.90;;;;;;5123195;27;20194;-35
2023/05/22 07:38:11;;;;;;;14.57;11.45;;;20.70;99.90;;;;;;5106551;27;20242;-36
2023/05/22 07:40:40;;;;;;;12.73;11.45;;;20.80;99.90;;;;;;5112615;27;20183;-35
2023/05/22 07:43:06;;;;;;;13.48;11.05;;;20.90;99.90;;;;;;5133220;27;20226;-35
2023/05/22 07:45:32;;;;;;;12.98;11.57;;;20.80;99.90;;;;;;5089353;27;20183;-34
2023/05/22 07:48:03;;;;;;;12.45;10.77;;;20.70;99.90;;;;;;5103445;28;20182;-35
2023/05/22 07:50:32;;;;;;;13.02;11.13;;;20.70;99.90;;;;;;5089587;27;20203;-36
2023/05/22 07:52:58;;;;;;;12.93;11.60;;;20.60;99.90;;;;;;5105055;28;20196;-35
2023/05/22 07:55:24;;;;;;;12.73;10.75;;;20.60;99.90;;;;;;5098556;27;20176;-35
2023/05/22 07:57:51;;;;;;;12.32;11.10;;;20.50;99.90;;;;;;5123291;27;20263;-35
2023/05/22 08:00:26;;;;;;;15.13;11.48;;;20.60;99.90;;;;;;5123198;27;20281;-35
2023/05/22 08:02:52;;;;;;;12.57;11.27;;;20.70;99.90;;;;;;5127378;27;20202;-35
2023/05/22 08:05:18;;;;;;;13.18;11.88;;;20.80;99.90;;;;;;5119708;27;20327;-35
2023/05/22 08:07:43;;;;;;;12.73;11.35;;;20.90;99.90;;;;;;5103422;28;20206;-35
2023/05/22 08:10:14;;;;;;;12.60;11.35;;;21.00;99.90;;;;;;5091825;28;20207;-37
2023/05/22 08:12:40;;;;;;;11.63;10.40;;;21.00;99.90;;;;;;5106662;27;20186;-35
2023/05/22 08:15:06;;;;;;;12.32;10.48;;;21.10;99.90;;;;;;5119769;27;20182;-35
2023/05/22 08:17:32;;;;;;;13.45;11.45;;;21.30;99.90;;;;;;5088765;27;20182;-35
2023/05/22 08:19:58;;;;;;;12.50;11.27;;;21.40;99.90;;;;;;5086283;28;20184;-35
2023/05/22 08:22:23;;;;;;;12.88;11.57;;;21.60;99.90;;;;;;5126466;27;20200;-35
2023/05/22 08:24:49;;;;;;;15.23;12.55;;;21.90;99.90;;;;;;5107702;27;20205;-37
2023/05/22 08:27:15;;;;;;;11.80;10.70;;;22.30;99.90;;;;;;5124343;27;20176;-37
2023/05/22 08:29:41;;;;;;;13.00;11.70;;;22.50;99.90;;;;;;5113665;27;20194;-35
2023/05/22 08:32:07;;;;;;;14.13;12.60;;;22.70;99.90;;;;;;5107706;27;20206;-35
2023/05/22 08:34:33;;;;;;;12.57;11.30;;;22.90;99.90;;;;;;5124823;27;20203;-36
2023/05/22 08:36:58;;;;;;;12.77;11.45;;;23.10;99.90;;;;;;5105954;27;20217;-35
2023/05/22 08:39:24;;;;;;;12.30;11.10;;;23.20;99.90;;;;;;5122418;27;20175;-36
2023/05/22 08:41:50;;;;;;;12.40;11.20;;;23.20;99.90;;;;;;5124752;27;20182;-36
2023/05/22 08:44:18;;;;;;;13.65;11.52;;;23.10;99.90;;;;;;5119535;27;20191;-35
2023/05/22 08:46:46;;;;;;;12.43;11.10;;;23.20;99.90;;;;;;5111116;27;20180;-35
2023/05/22 08:49:12;;;;;;;12.23;10.85;;;23.00;99.90;;;;;;5119923;27;20203;-35
2023/05/22 08:51:41;;;;;;;12.10;10.80;;;22.90;99.90;;;;;;5142653;27;20172;-37
2023/05/22 08:54:07;;;;;;;12.80;11.50;;;22.70;99.90;;;;;;5109767;27;20195;-35
2023/05/22 08:56:37;;;;;;;12.35;11.05;;;22.70;99.90;;;;;;5114838;27;20175;-39
2023/05/22 08:59:04;;;;;;;12.38;11.18;;;22.60;99.90;;;;;;5124287;27;20216;-35
2023/05/22 09:01:31;;;;;;;13.43;12.02;;;22.60;99.90;;;;;;5142508;27;20187;-35
2023/05/22 09:04:00;;;;;;;13.07;11.88;;;22.60;99.90;;;;;;5133492;27;20199;-36
2023/05/22 09:06:29;;;;;;;13.63;12.32;;;22.60;99.90;;;;;;5121615;27;20175;-35
2023/05/22 09:08:56;;;;;;;12.95;11.52;;;22.70;99.90;;;;;;5120015;27;20175;-35
2023/05/22 09:11:23;;;;;;;12.07;10.98;;;23.00;99.90;;;;;;5121609;27;20278;-37
2023/05/22 09:13:50;;;;;;;12.45;11.20;;;23.00;99.90;;;;;;5117001;27;20219;-35
2023/05/22 09:16:17;;;;;;;11.77;10.48;;;23.30;99.90;;;;;;5099113;27;20179;-36
2023/05/22 09:18:43;;;;;;;11.15;10.05;;;23.60;99.90;;;;;;5124061;27;20175;-37
2023/05/22 09:21:15;;;;;;;11.73;10.52;;;23.80;99.90;;;;;;5099268;28;20182;-36
2023/05/22 09:23:41;;;;;;;13.63;10.75;;;24.20;99.90;;;;;;5106554;27;20199;-36
2023/05/22 09:26:07;;;;;;;12.25;11.05;;;24.40;99.90;;;;;;5100531;28;20180;-37
2023/05/22 09:28:34;;;;;;;13.68;12.10;;;24.50;99.90;;;;;;5121008;27;20190;-35
2023/05/22 09:31:00;;;;;;;13.15;11.85;;;24.50;99.90;;;;;;5099967;27;20199;-35
2023/05/22 09:33:27;;;;;;;12.20;10.75;;;24.70;99.90;;;;;;5112215;27;20191;-36
2023/05/22 09:35:53;;;;;;;11.65;10.55;;;24.70;99.90;;;;;;5143633;27;20159;-35
2023/05/22 09:38:22;;;;;;;11.40;10.30;;;24.70;99.90;;;;;;5107142;27;20195;-35
2023/05/22 09:40:53;;;;;;;11.95;10.85;;;24.70;99.90;;;;;;5111962;27;20206;-36
2023/05/22 09:43:20;;;;;;;12.70;11.30;;;24.60;99.90;;;;;;5125063;27;20210;-36
2023/05/22 09:45:45;;;;;;;13.10;11.82;;;24.50;99.90;;;;;;5106943;28;20183;-36
2023/05/22 09:48:16;;;;;;;12.20;10.90;;;24.40;99.90;;;;;;5107338;27;20231;-39
2023/05/22 09:50:49;;;;;;;12.38;11.10;;;24.40;99.90;;;;;;5136522;27;20210;-36
2023/05/22 09:53:17;;;;;;;11.93;10.82;;;24.50;99.90;;;;;;5108693;28;20195;-37
2023/05/22 09:55:47;;;;;;;10.85;9.75;;;24.70;99.90;;;;;;5124440;27;20230;-35
2023/05/22 09:58:17;;;;;;;13.05;11.02;;;24.90;99.90;;;;;;5118422;27;20178;-36
2023/05/22 10:00:44;;;;;;;13.20;11.18;;;25.00;99.90;;;;;;5122067;27;20172;-35
2023/05/22 10:03:16;;;;;;;11.15;9.80;;;25.00;99.90;;;;;;5096887;28;20215;-36
2023/05/22 10:05:46;;;;;;;14.05;11.70;;;25.20;99.90;;;;;;5109206;27;20211;-35
2023/05/22 10:08:20;;;;;;;11.60;10.20;;;25.40;99.90;;;;;;5117344;27;20180;-39
2023/05/22 10:10:53;;;;;;;12.90;10.07;;;25.60;99.90;;;;;;5122932;27;20214;-39
2023/05/22 10:13:20;;;;;;;11.07;9.85;;;25.70;99.90;;;;;;5123161;27;20232;-35
2023/05/22 10:15:50;;;;;;;10.90;9.90;;;25.80;99.90;;;;;;5122198;27;20172;-37
2023/05/22 10:18:16;;;;;;;11.38;9.55;;;25.90;99.90;;;;;;5101034;28;20180;-34
2023/05/22 10:20:42;;;;;;;10.60;9.60;;;25.90;99.90;;;;;;5096999;27;20191;-36
2023/05/22 10:23:09;;;;;;;10.10;9.20;;;26.00;99.90;;;;;;5125285;27;20565;-36
2023/05/22 10:25:37;;;;;;;10.75;9.60;;;26.00;99.90;;;;;;5104084;27;20198;-35
2023/05/22 10:28:04;;;;;;;10.70;9.27;;;26.30;99.90;;;;;;5114505;27;20175;-34
2023/05/22 10:30:41;;;;;;;10.98;9.52;;;26.50;99.90;;;;;;5114172;27;20203;-34
2023/05/22 10:33:43;;;;;;;11.27;10.18;;;26.70;99.90;;;;;;5107934;27;20291;-35
2023/05/22 10:36:37;;;;;;;12.82;9.80;;;27.00;99.90;;;;;;5132548;27;20168;-34
2023/05/22 10:39:31;;;;;;;10.30;9.30;;;27.20;99.90;;;;;;5131820;27;20175;-33
2023/05/22 10:41:57;;;;;;;10.38;9.48;;;27.40;99.90;;;;;;5099560;28;20256;-33
2023/05/22 10:44:23;;;;;;;12.35;11.10;;;27.70;99.90;;;;;;5092174;27;20291;-32
2023/05/22 10:46:49;;;;;;;11.18;10.00;;;27.70;99.90;;;;;;5096004;27;20195;-32
2023/05/22 10:49:22;;;;;;;11.13;10.00;;;27.50;99.90;;;;;;5106692;28;20290;-32
2023/05/22 10:51:54;;;;;;;11.52;10.43;;;27.60;99.90;;;;;;5099048;27;20224;-32
2023/05/22 10:54:42;;;;;;;12.10;11.00;;;27.50;99.90;;;;;;5097370;28;20191;-31
2023/05/22 10:57:10;;;;;;;11.88;10.68;;;27.20;99.90;;;;;;5102897;27;20171;-33
2023/05/22 10:59:36;;;;;;;10.20;9.30;;;27.20;99.90;;;;;;5107492;27;20172;-32
2023/05/22 11:02:04;;;;;;;12.50;11.18;;;27.30;99.90;;;;;;5104073;28;20176;-32
2023/05/22 11:04:30;;;;;;;10.73;9.77;;;27.40;99.90;;;;;;5126077;27;20207;-33
2023/05/22 11:07:04;;;;;;;11.70;9.90;;;27.60;99.90;;;;;;5097049;27;20175;-33
2023/05/22 11:09:32;;;;;;;11.38;10.15;;;27.70;99.90;;;;;;5096770;27;20298;-32
2023/05/22 11:12:20;;;;;;;12.20;11.07;;;27.70;99.90;;;;;;5096515;27;20210;-33
2023/05/22 11:14:54;;;;;;;12.55;10.45;;;27.90;99.90;;;;;;5109032;27;20207;-33
2023/05/22 11:17:22;;;;;;;12.15;10.95;;;28.00;99.90;;;;;;5123613;27;20203;-34
2023/05/22 11:20:00;;;;;;;11.25;10.18;;;28.20;99.90;;;;;;5080128;27;20190;-32
2023/05/22 11:22:35;;;;;;;10.93;9.82;;;28.20;99.90;;;;;;5093867;27;20187;-33
2023/05/22 11:25:15;;;;;;;10.23;9.25;;;28.40;99.90;;;;;;5098043;27;20265;-32
2023/05/22 11:27:42;;;;;;;11.15;10.15;;;28.50;99.90;;;;;;5112646;27;20257;-34
2023/05/22 11:30:15;;;;;;;11.18;10.18;;;28.90;99.90;;;;;;5099429;27;20203;-33
2023/05/22 11:32:43;;;;;;;10.73;9.73;;;28.90;99.90;;;;;;5097177;27;20209;-35
2023/05/22 11:35:13;;;;;;;11.40;10.40;;;28.80;99.90;;;;;;5097929;27;20182;-33
2023/05/22 11:37:40;;;;;;;10.95;9.95;;;29.00;99.90;;;;;;5108586;27;20230;-34
2023/05/22 11:40:07;;;;;;;11.30;10.20;;;29.30;99.90;;;;;;5100382;28;20243;-34
2023/05/22 11:42:34;;;;;;;10.82;9.85;;;29.30;99.90;;;;;;5087709;27;20180;-34
2023/05/22 11:45:01;;;;;;;11.43;10.32;;;29.50;99.90;;;;;;5103747;28;20233;-35
2023/05/22 11:47:30;;;;;;;11.52;10.40;;;29.40;99.90;;;;;;5110958;27;20183;-34
2023/05/22 11:49:57;;;;;;;10.95;9.88;;;29.20;99.90;;;;;;5098279;28;20203;-36
2023/05/22 11:52:23;;;;;;;10.52;9.55;;;29.30;99.90;;;;;;5111166;28;20171;-36
2023/05/22 11:54:51;;;;;;;11.15;10.15;;;29.50;99.90;;;;;;5083855;28;20199;-33
2023/05/22 11:57:18;;;;;;;10.52;9.38;;;29.70;99.90;;;;;;5091790;28;20175;-34
2023/05/22 11:59:45;;;;;;;10.65;9.65;;;29.80;99.90;;;;;;5129747;27;20183;-34
2023/05/22 12:02:12;;;;;;;10.07;9.07;;;29.90;99.90;;;;;;5093250;28;20186;-35
2023/05/22 12:04:38;;;;;;;11.68;9.93;;;29.70;99.90;;;;;;5095970;27;20210;-34
2023/05/22 12:07:04;;;;;;;10.85;9.77;;;29.50;99.90;;;;;;5094268;28;20191;-35
2023/05/22 12:09:30;;;;;;;10.45;9.38;;;29.60;99.90;;;;;;5091005;27;20203;-34
2023/05/22 12:11:57;;;;;;;10.65;9.65;;;29.90;99.90;;;;;;5106482;28;20179;-34
2023/05/22 12:14:27;;;;;;;10.27;9.32;;;29.90;99.90;;;;;;5091923;28;20298;-35
2023/05/22 12:16:54;;;;;;;9.45;8.65;;;29.80;99.90;;;;;;5084660;28;20189;-38
2023/05/22 12:19:21;;;;;;;10.50;9.55;;;29.90;99.90;;;;;;5100535;28;20187;-34
2023/05/22 12:21:50;;;;;;;11.15;9.45;;;30.00;99.90;;;;;;5109231;27;20208;-36
2023/05/22 12:24:22;;;;;;;10.27;9.27;;;30.30;99.90;;;;;;5088295;28;20199;-39
2023/05/22 12:26:52;;;;;;;9.77;8.88;;;30.40;99.90;;;;;;5105740;27;20525;-35
2023/05/22 12:29:23;;;;;;;9.32;8.27;;;30.70;99.90;;;;;;5099559;28;20191;-35
2023/05/22 12:31:50;;;;;;;13.63;9.52;;;30.90;99.90;;;;;;5104279;27;20258;-34
2023/05/22 12:34:20;;;;;;;9.45;8.55;;;30.60;99.90;;;;;;5100069;28;20195;-34
2023/05/22 12:36:46;;;;;;;9.25;8.45;;;30.40;99.90;;;;;;5084876;27;20228;-34